sensor_id;sensor_type;location;lat;lon;timestamp;P1;durP1;ratioP1;P2;durP2;ratioP2
25639;SDS011;13497;48.322;16.204;2023-09-19T00:02:01;2.90;;;0.30;;
25639;SDS011;13497;48.322;16.204;2023-09-19T00:04:31;0.25;;;0.25;;
25639;SDS011;13497;48.322;16.204;2023-09-19T00:07:00;0.30;;;0.30;;
25639;SDS011;13497;48.322;16.204;2023-09-19T00:09:27;0.38;;;0.30;;
25639;SDS011;13497;48.322;16.204;2023-09-19T00:11:53;0.40;;;0.30;;
25639;SDS011;13497;48.322;16.204;2023-09-19T00:14:19;0.30;;;0.20;;
25639;SDS011;13497;48.322;16.204;2023-09-19T00:16:45;2.42;;;0.20;;
25639;SDS011;13497;48.322;16.204;2023-09-19T00:19:11;0.30;;;0.28;;
25639;SDS011;13497;48.322;16.204;2023-09-19T00:21:38;0.32;;;0.32;;
25639;SDS011;13497;48.322;16.204;2023-09-19T00:24:05;0.30;;;0.30;;
25639;SDS011;13497;48.322;16.204;2023-09-19T00:26:32;0.50;;;0.50;;
25639;SDS011;13497;48.322;16.204;2023-09-19T00:28:59;0.68;;;0.30;;
25639;SDS011;13497;48.322;16.204;2023-09-19T00:31:30;0.25;;;0.20;;
25639;SDS011;13497;48.322;16.204;2023-09-19T00:33:56;0.30;;;0.30;;
25639;SDS011;13497;48.322;16.204;2023-09-19T00:36:27;0.22;;;0.20;;
25639;SDS011;13497;48.322;16.204;2023-09-19T00:38:54;0.52;;;0.30;;
25639;SDS011;13497;48.322;16.204;2023-09-19T00:41:19;0.20;;;0.20;;
25639;SDS011;13497;48.322;16.204;2023-09-19T00:43:46;0.20;;;0.20;;
25639;SDS011;13497;48.322;16.204;2023-09-19T00:48:41;0.20;;;0.20;;
25639;SDS011;13497;48.322;16.204;2023-09-19T00:51:11;0.10;;;0.10;;
25639;SDS011;13497;48.322;16.204;2023-09-19T00:53:39;0.50;;;0.20;;
25639;SDS011;13497;48.322;16.204;2023-09-19T00:56:11;0.35;;;0.30;;
25639;SDS011;13497;48.322;16.204;2023-09-19T00:58:37;1.50;;;0.45;;
25639;SDS011;13497;48.322;16.204;2023-09-19T01:01:03;0.10;;;0.10;;
25639;SDS011;13497;48.322;16.204;2023-09-19T01:03:32;1.00;;;0.35;;
25639;SDS011;13497;48.322;16.204;2023-09-19T01:06:01;0.25;;;0.25;;
25639;SDS011;13497;48.322;16.204;2023-09-19T01:08:27;1.27;;;0.38;;
25639;SDS011;13497;48.322;16.204;2023-09-19T01:11:06;0.20;;;0.20;;
25639;SDS011;13497;48.322;16.204;2023-09-19T01:13:45;0.65;;;0.40;;
25639;SDS011;13497;48.322;16.204;2023-09-19T01:22:16;1.92;;;0.30;;
25639;SDS011;13497;48.322;16.204;2023-09-19T01:25:15;0.30;;;0.22;;
25639;SDS011;13497;48.322;16.204;2023-09-19T01:30:45;0.30;;;0.30;;
25639;SDS011;13497;48.322;16.204;2023-09-19T01:33:12;0.57;;;0.30;;
25639;SDS011;13497;48.322;16.204;2023-09-19T01:35:39;1.67;;;0.13;;
25639;SDS011;13497;48.322;16.204;2023-09-19T01:38:06;3.60;;;0.30;;
25639;SDS011;13497;48.322;16.204;2023-09-19T01:40:34;0.63;;;0.40;;
25639;SDS011;13497;48.322;16.204;2023-09-19T01:43:12;0.30;;;0.20;;
25639;SDS011;13497;48.322;16.204;2023-09-19T01:51:20;1.27;;;0.25;;
25639;SDS011;13497;48.322;16.204;2023-09-19T01:54:04;0.30;;;0.20;;
25639;SDS011;13497;48.322;16.204;2023-09-19T01:56:42;0.52;;;0.20;;
25639;SDS011;13497;48.322;16.204;2023-09-19T01:59:17;0.40;;;0.30;;
25639;SDS011;13497;48.322;16.204;2023-09-19T02:01:49;1.85;;;0.30;;
25639;SDS011;13497;48.322;16.204;2023-09-19T02:04:16;0.68;;;0.32;;
25639;SDS011;13497;48.322;16.204;2023-09-19T02:06:42;0.32;;;0.20;;
25639;SDS011;13497;48.322;16.204;2023-09-19T02:09:08;2.00;;;0.20;;
25639;SDS011;13497;48.322;16.204;2023-09-19T02:11:34;0.10;;;0.10;;
25639;SDS011;13497;48.322;16.204;2023-09-19T02:14:01;0.57;;;0.20;;
25639;SDS011;13497;48.322;16.204;2023-09-19T02:16:29;1.00;;;0.28;;
25639;SDS011;13497;48.322;16.204;2023-09-19T02:18:54;0.10;;;0.10;;
25639;SDS011;13497;48.322;16.204;2023-09-19T02:21:20;0.20;;;0.13;;
25639;SDS011;13497;48.322;16.204;2023-09-19T02:23:47;0.85;;;0.28;;
25639;SDS011;13497;48.322;16.204;2023-09-19T02:26:13;1.80;;;0.30;;
25639;SDS011;13497;48.322;16.204;2023-09-19T02:28:39;0.75;;;0.20;;
25639;SDS011;13497;48.322;16.204;2023-09-19T02:31:05;1.02;;;0.40;;
25639;SDS011;13497;48.322;16.204;2023-09-19T02:33:30;0.20;;;0.20;;
25639;SDS011;13497;48.322;16.204;2023-09-19T02:36:00;1.40;;;0.30;;
25639;SDS011;13497;48.322;16.204;2023-09-19T02:38:28;0.25;;;0.22;;
25639;SDS011;13497;48.322;16.204;2023-09-19T02:40:55;0.90;;;0.10;;
25639;SDS011;13497;48.322;16.204;2023-09-19T02:43:21;0.30;;;0.30;;
25639;SDS011;13497;48.322;16.204;2023-09-19T02:45:47;0.63;;;0.30;;
25639;SDS011;13497;48.322;16.204;2023-09-19T02:48:18;0.20;;;0.20;;
25639;SDS011;13497;48.322;16.204;2023-09-19T02:50:44;0.63;;;0.20;;
25639;SDS011;13497;48.322;16.204;2023-09-19T02:53:10;0.13;;;0.10;;
25639;SDS011;13497;48.322;16.204;2023-09-19T02:55:37;0.28;;;0.25;;
25639;SDS011;13497;48.322;16.204;2023-09-19T02:58:05;0.70;;;0.50;;
25639;SDS011;13497;48.322;16.204;2023-09-19T03:00:32;0.30;;;0.20;;
25639;SDS011;13497;48.322;16.204;2023-09-19T03:03:00;0.38;;;0.30;;
25639;SDS011;13497;48.322;16.204;2023-09-19T03:05:27;0.60;;;0.20;;
25639;SDS011;13497;48.322;16.204;2023-09-19T03:07:55;0.40;;;0.30;;
25639;SDS011;13497;48.322;16.204;2023-09-19T03:10:22;1.52;;;0.22;;
25639;SDS011;13497;48.322;16.204;2023-09-19T03:12:49;0.47;;;0.32;;
25639;SDS011;13497;48.322;16.204;2023-09-19T03:15:15;0.25;;;0.20;;
25639;SDS011;13497;48.322;16.204;2023-09-19T03:17:43;3.10;;;0.68;;
25639;SDS011;13497;48.322;16.204;2023-09-19T03:20:10;0.95;;;0.30;;
25639;SDS011;13497;48.322;16.204;2023-09-19T03:22:38;0.47;;;0.30;;
25639;SDS011;13497;48.322;16.204;2023-09-19T03:25:05;1.42;;;0.40;;
25639;SDS011;13497;48.322;16.204;2023-09-19T03:27:33;0.30;;;0.30;;
25639;SDS011;13497;48.322;16.204;2023-09-19T03:30:08;0.28;;;0.28;;
25639;SDS011;13497;48.322;16.204;2023-09-19T03:32:34;0.28;;;0.28;;
25639;SDS011;13497;48.322;16.204;2023-09-19T03:35:01;1.50;;;0.40;;
25639;SDS011;13497;48.322;16.204;2023-09-19T03:37:30;0.38;;;0.30;;
25639;SDS011;13497;48.322;16.204;2023-09-19T03:39:56;0.40;;;0.30;;
25639;SDS011;13497;48.322;16.204;2023-09-19T03:42:21;0.87;;;0.40;;
25639;SDS011;13497;48.322;16.204;2023-09-19T03:44:50;0.43;;;0.30;;
25639;SDS011;13497;48.322;16.204;2023-09-19T03:49:44;0.80;;;0.40;;
25639;SDS011;13497;48.322;16.204;2023-09-19T03:52:09;1.55;;;0.30;;
25639;SDS011;13497;48.322;16.204;2023-09-19T03:54:35;0.40;;;0.40;;
25639;SDS011;13497;48.322;16.204;2023-09-19T03:57:01;0.60;;;0.50;;
25639;SDS011;13497;48.322;16.204;2023-09-19T03:59:29;0.50;;;0.50;;
25639;SDS011;13497;48.322;16.204;2023-09-19T04:01:54;0.57;;;0.50;;
25639;SDS011;13497;48.322;16.204;2023-09-19T04:04:22;0.77;;;0.55;;
25639;SDS011;13497;48.322;16.204;2023-09-19T04:06:49;2.70;;;0.60;;
25639;SDS011;13497;48.322;16.204;2023-09-19T04:09:16;0.70;;;0.60;;
25639;SDS011;13497;48.322;16.204;2023-09-19T04:11:41;0.70;;;0.50;;
25639;SDS011;13497;48.322;16.204;2023-09-19T04:14:07;1.27;;;0.60;;
25639;SDS011;13497;48.322;16.204;2023-09-19T04:16:32;2.93;;;0.77;;
25639;SDS011;13497;48.322;16.204;2023-09-19T04:18:58;0.50;;;0.50;;
25639;SDS011;13497;48.322;16.204;2023-09-19T04:21:24;0.90;;;0.80;;
25639;SDS011;13497;48.322;16.204;2023-09-19T04:23:50;3.93;;;0.67;;
25639;SDS011;13497;48.322;16.204;2023-09-19T04:26:15;0.85;;;0.60;;
25639;SDS011;13497;48.322;16.204;2023-09-19T04:28:41;0.82;;;0.60;;
25639;SDS011;13497;48.322;16.204;2023-09-19T04:31:08;0.85;;;0.65;;
25639;SDS011;13497;48.322;16.204;2023-09-19T04:33:36;0.95;;;0.60;;
25639;SDS011;13497;48.322;16.204;2023-09-19T04:36:02;0.40;;;0.40;;
25639;SDS011;13497;48.322;16.204;2023-09-19T04:38:32;0.50;;;0.50;;
25639;SDS011;13497;48.322;16.204;2023-09-19T04:40:58;0.77;;;0.52;;
25639;SDS011;13497;48.322;16.204;2023-09-19T04:43:24;0.98;;;0.68;;
25639;SDS011;13497;48.322;16.204;2023-09-19T04:48:19;0.80;;;0.60;;
25639;SDS011;13497;48.322;16.204;2023-09-19T04:50:45;0.40;;;0.35;;
25639;SDS011;13497;48.322;16.204;2023-09-19T04:53:10;0.50;;;0.50;;
25639;SDS011;13497;48.322;16.204;2023-09-19T04:55:36;0.50;;;0.30;;
25639;SDS011;13497;48.322;16.204;2023-09-19T04:58:01;0.60;;;0.60;;
25639;SDS011;13497;48.322;16.204;2023-09-19T05:00:28;0.68;;;0.40;;
25639;SDS011;13497;48.322;16.204;2023-09-19T05:02:56;0.55;;;0.40;;
25639;SDS011;13497;48.322;16.204;2023-09-19T05:05:22;0.60;;;0.60;;
25639;SDS011;13497;48.322;16.204;2023-09-19T05:07:49;3.97;;;0.65;;
25639;SDS011;13497;48.322;16.204;2023-09-19T05:10:16;2.00;;;0.57;;
25639;SDS011;13497;48.322;16.204;2023-09-19T05:12:43;1.92;;;0.75;;
25639;SDS011;13497;48.322;16.204;2023-09-19T05:15:12;1.63;;;0.63;;
25639;SDS011;13497;48.322;16.204;2023-09-19T05:17:37;0.82;;;0.50;;
25639;SDS011;13497;48.322;16.204;2023-09-19T05:20:04;0.70;;;0.65;;
25639;SDS011;13497;48.322;16.204;2023-09-19T05:23:00;0.77;;;0.60;;
25639;SDS011;13497;48.322;16.204;2023-09-19T05:25:27;0.70;;;0.60;;
25639;SDS011;13497;48.322;16.204;2023-09-19T05:27:57;1.10;;;0.65;;
25639;SDS011;13497;48.322;16.204;2023-09-19T05:30:24;3.05;;;0.60;;
25639;SDS011;13497;48.322;16.204;2023-09-19T05:32:52;0.65;;;0.60;;
25639;SDS011;13497;48.322;16.204;2023-09-19T05:35:19;0.93;;;0.70;;
25639;SDS011;13497;48.322;16.204;2023-09-19T05:37:46;1.40;;;0.70;;
25639;SDS011;13497;48.322;16.204;2023-09-19T05:40:14;3.53;;;0.90;;
25639;SDS011;13497;48.322;16.204;2023-09-19T05:42:41;1.10;;;1.00;;
25639;SDS011;13497;48.322;16.204;2023-09-19T05:45:09;1.60;;;0.60;;
25639;SDS011;13497;48.322;16.204;2023-09-19T05:47:39;1.20;;;0.52;;
25639;SDS011;13497;48.322;16.204;2023-09-19T05:50:10;0.75;;;0.60;;
25639;SDS011;13497;48.322;16.204;2023-09-19T05:52:36;0.40;;;0.40;;
25639;SDS011;13497;48.322;16.204;2023-09-19T05:55:04;1.30;;;0.80;;
25639;SDS011;13497;48.322;16.204;2023-09-19T05:57:31;2.60;;;0.90;;
25639;SDS011;13497;48.322;16.204;2023-09-19T05:59:57;3.63;;;0.50;;
25639;SDS011;13497;48.322;16.204;2023-09-19T06:02:23;1.17;;;0.70;;
25639;SDS011;13497;48.322;16.204;2023-09-19T06:04:52;0.75;;;0.60;;
25639;SDS011;13497;48.322;16.204;2023-09-19T06:07:18;0.98;;;0.45;;
25639;SDS011;13497;48.322;16.204;2023-09-19T06:09:43;0.80;;;0.50;;
25639;SDS011;13497;48.322;16.204;2023-09-19T06:12:09;0.50;;;0.50;;
25639;SDS011;13497;48.322;16.204;2023-09-19T06:14:34;4.80;;;0.83;;
25639;SDS011;13497;48.322;16.204;2023-09-19T06:17:00;1.10;;;0.67;;
25639;SDS011;13497;48.322;16.204;2023-09-19T06:19:26;29.57;;;11.33;;
25639;SDS011;13497;48.322;16.204;2023-09-19T06:21:52;33.43;;;9.70;;
25639;SDS011;13497;48.322;16.204;2023-09-19T06:24:19;26.73;;;8.15;;
25639;SDS011;13497;48.322;16.204;2023-09-19T06:26:46;2.85;;;1.58;;
25639;SDS011;13497;48.322;16.204;2023-09-19T06:31:39;4.43;;;1.00;;
25639;SDS011;13497;48.322;16.204;2023-09-19T06:34:05;4.00;;;2.03;;
25639;SDS011;13497;48.322;16.204;2023-09-19T06:36:30;2.30;;;2.05;;
25639;SDS011;13497;48.322;16.204;2023-09-19T06:38:56;1.80;;;0.67;;
25639;SDS011;13497;48.322;16.204;2023-09-19T06:41:21;1.57;;;0.90;;
25639;SDS011;13497;48.322;16.204;2023-09-19T06:43:49;0.82;;;0.63;;
25639;SDS011;13497;48.322;16.204;2023-09-19T06:46:18;0.90;;;0.60;;
25639;SDS011;13497;48.322;16.204;2023-09-19T06:48:44;0.87;;;0.60;;
25639;SDS011;13497;48.322;16.204;2023-09-19T06:51:12;0.60;;;0.60;;
25639;SDS011;13497;48.322;16.204;2023-09-19T06:53:41;3.13;;;0.50;;
25639;SDS011;13497;48.322;16.204;2023-09-19T06:56:07;1.75;;;1.10;;
25639;SDS011;13497;48.322;16.204;2023-09-19T06:58:33;1.30;;;0.80;;
25639;SDS011;13497;48.322;16.204;2023-09-19T07:00:59;1.17;;;1.08;;
25639;SDS011;13497;48.322;16.204;2023-09-19T07:03:25;1.25;;;0.65;;
25639;SDS011;13497;48.322;16.204;2023-09-19T07:05:53;0.50;;;0.50;;
25639;SDS011;13497;48.322;16.204;2023-09-19T07:08:21;1.95;;;1.30;;
25639;SDS011;13497;48.322;16.204;2023-09-19T07:10:46;2.67;;;0.73;;
25639;SDS011;13497;48.322;16.204;2023-09-19T07:13:17;0.95;;;0.70;;
25639;SDS011;13497;48.322;16.204;2023-09-19T07:15:43;0.70;;;0.60;;
25639;SDS011;13497;48.322;16.204;2023-09-19T07:18:16;0.80;;;0.63;;
25639;SDS011;13497;48.322;16.204;2023-09-19T07:20:43;1.00;;;0.70;;
25639;SDS011;13497;48.322;16.204;2023-09-19T07:23:14;0.50;;;0.50;;
25639;SDS011;13497;48.322;16.204;2023-09-19T07:25:47;2.78;;;0.60;;
25639;SDS011;13497;48.322;16.204;2023-09-19T07:28:14;2.55;;;1.23;;
25639;SDS011;13497;48.322;16.204;2023-09-19T07:33:09;0.68;;;0.52;;
25639;SDS011;13497;48.322;16.204;2023-09-19T07:35:38;3.97;;;0.60;;
25639;SDS011;13497;48.322;16.204;2023-09-19T07:38:05;1.27;;;0.65;;
25639;SDS011;13497;48.322;16.204;2023-09-19T07:40:31;0.63;;;0.50;;
25639;SDS011;13497;48.322;16.204;2023-09-19T07:42:57;1.03;;;0.60;;
25639;SDS011;13497;48.322;16.204;2023-09-19T07:45:26;1.05;;;0.50;;
25639;SDS011;13497;48.322;16.204;2023-09-19T07:47:55;0.63;;;0.50;;
25639;SDS011;13497;48.322;16.204;2023-09-19T07:50:21;1.05;;;0.63;;
25639;SDS011;13497;48.322;16.204;2023-09-19T07:52:47;4.43;;;0.90;;
25639;SDS011;13497;48.322;16.204;2023-09-19T07:55:17;1.00;;;0.70;;
25639;SDS011;13497;48.322;16.204;2023-09-19T07:57:44;2.65;;;0.70;;
25639;SDS011;13497;48.322;16.204;2023-09-19T08:00:11;1.10;;;0.80;;
25639;SDS011;13497;48.322;16.204;2023-09-19T08:02:38;1.10;;;1.00;;
25639;SDS011;13497;48.322;16.204;2023-09-19T08:05:05;1.67;;;0.90;;
25639;SDS011;13497;48.322;16.204;2023-09-19T08:09:57;1.27;;;0.80;;
25639;SDS011;13497;48.322;16.204;2023-09-19T08:12:23;2.55;;;1.10;;
25639;SDS011;13497;48.322;16.204;2023-09-19T08:14:49;1.15;;;0.80;;
25639;SDS011;13497;48.322;16.204;2023-09-19T08:17:15;1.20;;;0.85;;
25639;SDS011;13497;48.322;16.204;2023-09-19T08:19:41;8.65;;;1.20;;
25639;SDS011;13497;48.322;16.204;2023-09-19T08:22:10;1.08;;;0.70;;
25639;SDS011;13497;48.322;16.204;2023-09-19T08:24:36;2.17;;;0.80;;
25639;SDS011;13497;48.322;16.204;2023-09-19T08:27:03;0.77;;;0.77;;
25639;SDS011;13497;48.322;16.204;2023-09-19T08:29:29;2.78;;;0.68;;
25639;SDS011;13497;48.322;16.204;2023-09-19T08:31:56;4.22;;;0.88;;
25639;SDS011;13497;48.322;16.204;2023-09-19T08:34:23;2.40;;;1.00;;
25639;SDS011;13497;48.322;16.204;2023-09-19T08:36:54;0.75;;;0.70;;
25639;SDS011;13497;48.322;16.204;2023-09-19T08:39:23;1.10;;;0.73;;
25639;SDS011;13497;48.322;16.204;2023-09-19T08:41:56;0.82;;;0.70;;
25639;SDS011;13497;48.322;16.204;2023-09-19T08:44:24;1.35;;;1.02;;
25639;SDS011;13497;48.322;16.204;2023-09-19T08:46:50;0.80;;;0.80;;
25639;SDS011;13497;48.322;16.204;2023-09-19T08:49:24;0.85;;;0.70;;
25639;SDS011;13497;48.322;16.204;2023-09-19T08:52:10;2.85;;;0.70;;
25639;SDS011;13497;48.322;16.204;2023-09-19T08:54:45;0.57;;;0.57;;
25639;SDS011;13497;48.322;16.204;2023-09-19T08:57:16;1.33;;;0.60;;
25639;SDS011;13497;48.322;16.204;2023-09-19T08:59:47;0.50;;;0.50;;
25639;SDS011;13497;48.322;16.204;2023-09-19T09:02:15;1.75;;;0.70;;
25639;SDS011;13497;48.322;16.204;2023-09-19T09:04:44;1.23;;;0.63;;
25639;SDS011;13497;48.322;16.204;2023-09-19T09:07:12;2.40;;;0.90;;
25639;SDS011;13497;48.322;16.204;2023-09-19T09:09:39;3.03;;;1.00;;
25639;SDS011;13497;48.322;16.204;2023-09-19T09:12:11;0.73;;;0.60;;
25639;SDS011;13497;48.322;16.204;2023-09-19T09:14:38;1.48;;;0.80;;
25639;SDS011;13497;48.322;16.204;2023-09-19T09:19:30;1.00;;;0.73;;
25639;SDS011;13497;48.322;16.204;2023-09-19T09:22:18;1.23;;;0.70;;
25639;SDS011;13497;48.322;16.204;2023-09-19T09:24:56;3.17;;;0.70;;
25639;SDS011;13497;48.322;16.204;2023-09-19T09:27:31;0.95;;;0.85;;
25639;SDS011;13497;48.322;16.204;2023-09-19T09:29:59;0.60;;;0.60;;
25639;SDS011;13497;48.322;16.204;2023-09-19T09:32:27;0.60;;;0.60;;
25639;SDS011;13497;48.322;16.204;2023-09-19T09:34:59;3.25;;;0.98;;
25639;SDS011;13497;48.322;16.204;2023-09-19T09:37:26;1.40;;;0.80;;
25639;SDS011;13497;48.322;16.204;2023-09-19T09:40:00;0.60;;;0.60;;
25639;SDS011;13497;48.322;16.204;2023-09-19T09:42:55;0.77;;;0.55;;
25639;SDS011;13497;48.322;16.204;2023-09-19T09:45:24;3.58;;;0.80;;
25639;SDS011;13497;48.322;16.204;2023-09-19T09:48:16;1.23;;;0.80;;
25639;SDS011;13497;48.322;16.204;2023-09-19T09:50:57;2.22;;;0.98;;
25639;SDS011;13497;48.322;16.204;2023-09-19T09:53:28;1.58;;;0.80;;
25639;SDS011;13497;48.322;16.204;2023-09-19T09:58:30;0.68;;;0.63;;
25639;SDS011;13497;48.322;16.204;2023-09-19T10:00:59;0.70;;;0.70;;
25639;SDS011;13497;48.322;16.204;2023-09-19T10:03:37;0.95;;;0.70;;
25639;SDS011;13497;48.322;16.204;2023-09-19T10:06:11;0.88;;;0.50;;
25639;SDS011;13497;48.322;16.204;2023-09-19T10:11:45;0.88;;;0.70;;
25639;SDS011;13497;48.322;16.204;2023-09-19T10:14:16;0.80;;;0.60;;
25639;SDS011;13497;48.322;16.204;2023-09-19T10:16:48;0.65;;;0.60;;
25639;SDS011;13497;48.322;16.204;2023-09-19T10:19:23;0.80;;;0.70;;
25639;SDS011;13497;48.322;16.204;2023-09-19T10:21:55;0.80;;;0.80;;
25639;SDS011;13497;48.322;16.204;2023-09-19T10:24:22;2.67;;;0.63;;
25639;SDS011;13497;48.322;16.204;2023-09-19T10:26:50;0.50;;;0.50;;
25639;SDS011;13497;48.322;16.204;2023-09-19T10:31:42;6.20;;;1.00;;
25639;SDS011;13497;48.322;16.204;2023-09-19T10:34:14;0.55;;;0.55;;
25639;SDS011;13497;48.322;16.204;2023-09-19T10:36:42;1.00;;;0.90;;
25639;SDS011;13497;48.322;16.204;2023-09-19T10:39:10;0.73;;;0.60;;
25639;SDS011;13497;48.322;16.204;2023-09-19T10:41:38;1.13;;;0.85;;
25639;SDS011;13497;48.322;16.204;2023-09-19T10:46:34;0.55;;;0.52;;
25639;SDS011;13497;48.322;16.204;2023-09-19T10:49:00;0.70;;;0.70;;
25639;SDS011;13497;48.322;16.204;2023-09-19T10:51:31;0.70;;;0.70;;
25639;SDS011;13497;48.322;16.204;2023-09-19T10:54:08;1.08;;;0.88;;
25639;SDS011;13497;48.322;16.204;2023-09-19T10:56:38;1.20;;;0.93;;
25639;SDS011;13497;48.322;16.204;2023-09-19T10:59:17;3.10;;;0.80;;
25639;SDS011;13497;48.322;16.204;2023-09-19T11:04:34;0.70;;;0.70;;
25639;SDS011;13497;48.322;16.204;2023-09-19T11:07:13;6.93;;;0.70;;
25639;SDS011;13497;48.322;16.204;2023-09-19T11:09:55;0.82;;;0.70;;
25639;SDS011;13497;48.322;16.204;2023-09-19T11:15:06;0.68;;;0.57;;
25639;SDS011;13497;48.322;16.204;2023-09-19T11:17:37;1.15;;;1.05;;
25639;SDS011;13497;48.322;16.204;2023-09-19T11:30:30;1.42;;;0.98;;
25639;SDS011;13497;48.322;16.204;2023-09-19T11:41:55;0.98;;;0.70;;
25639;SDS011;13497;48.322;16.204;2023-09-19T11:46:34;0.80;;;0.70;;
25639;SDS011;13497;48.322;16.204;2023-09-19T11:49:27;0.85;;;0.80;;
25639;SDS011;13497;48.322;16.204;2023-09-19T11:52:01;0.57;;;0.57;;
25639;SDS011;13497;48.322;16.204;2023-09-19T11:54:31;1.15;;;0.70;;
25639;SDS011;13497;48.322;16.204;2023-09-19T11:56:58;0.60;;;0.60;;
25639;SDS011;13497;48.322;16.204;2023-09-19T11:59:25;0.70;;;0.70;;
25639;SDS011;13497;48.322;16.204;2023-09-19T12:02:04;1.63;;;0.80;;
25639;SDS011;13497;48.322;16.204;2023-09-19T12:04:34;1.35;;;0.70;;
25639;SDS011;13497;48.322;16.204;2023-09-19T12:07:07;2.95;;;0.93;;
25639;SDS011;13497;48.322;16.204;2023-09-19T12:09:40;0.65;;;0.65;;
25639;SDS011;13497;48.322;16.204;2023-09-19T12:12:22;0.80;;;0.60;;
25639;SDS011;13497;48.322;16.204;2023-09-19T12:14:52;0.80;;;0.68;;
25639;SDS011;13497;48.322;16.204;2023-09-19T12:17:19;0.65;;;0.65;;
25639;SDS011;13497;48.322;16.204;2023-09-19T12:19:52;0.60;;;0.60;;
25639;SDS011;13497;48.322;16.204;2023-09-19T12:22:20;0.77;;;0.70;;
25639;SDS011;13497;48.322;16.204;2023-09-19T12:24:46;1.23;;;0.70;;
25639;SDS011;13497;48.322;16.204;2023-09-19T12:27:13;0.85;;;0.50;;
25639;SDS011;13497;48.322;16.204;2023-09-19T12:29:46;2.17;;;0.47;;
25639;SDS011;13497;48.322;16.204;2023-09-19T12:32:34;0.60;;;0.57;;
25639;SDS011;13497;48.322;16.204;2023-09-19T12:35:00;1.92;;;0.95;;
25639;SDS011;13497;48.322;16.204;2023-09-19T12:37:32;0.68;;;0.68;;
25639;SDS011;13497;48.322;16.204;2023-09-19T12:40:08;0.40;;;0.40;;
25639;SDS011;13497;48.322;16.204;2023-09-19T12:42:46;0.93;;;0.70;;
25639;SDS011;13497;48.322;16.204;2023-09-19T12:45:12;0.88;;;0.45;;
25639;SDS011;13497;48.322;16.204;2023-09-19T12:47:40;0.95;;;0.70;;
25639;SDS011;13497;48.322;16.204;2023-09-19T12:53:35;1.15;;;0.60;;
25639;SDS011;13497;48.322;16.204;2023-09-19T12:56:06;0.60;;;0.60;;
25639;SDS011;13497;48.322;16.204;2023-09-19T12:58:33;1.17;;;0.80;;
25639;SDS011;13497;48.322;16.204;2023-09-19T13:01:00;0.60;;;0.60;;
25639;SDS011;13497;48.322;16.204;2023-09-19T13:03:30;1.75;;;0.75;;
25639;SDS011;13497;48.322;16.204;2023-09-19T13:06:02;2.05;;;0.90;;
25639;SDS011;13497;48.322;16.204;2023-09-19T13:11:20;2.63;;;0.80;;
25639;SDS011;13497;48.322;16.204;2023-09-19T13:13:49;0.50;;;0.50;;
25639;SDS011;13497;48.322;16.204;2023-09-19T13:16:52;0.63;;;0.63;;
25639;SDS011;13497;48.322;16.204;2023-09-19T13:19:40;2.25;;;0.70;;
25639;SDS011;13497;48.322;16.204;2023-09-19T13:24:56;1.00;;;0.80;;
25639;SDS011;13497;48.322;16.204;2023-09-19T13:27:23;1.45;;;0.80;;
25639;SDS011;13497;48.322;16.204;2023-09-19T13:29:49;1.20;;;0.57;;
25639;SDS011;13497;48.322;16.204;2023-09-19T13:32:14;0.80;;;0.67;;
25639;SDS011;13497;48.322;16.204;2023-09-19T13:34:40;1.13;;;0.65;;
25639;SDS011;13497;48.322;16.204;2023-09-19T13:37:05;1.13;;;0.52;;
25639;SDS011;13497;48.322;16.204;2023-09-19T13:39:31;1.95;;;0.77;;
25639;SDS011;13497;48.322;16.204;2023-09-19T13:41:57;3.80;;;0.90;;
25639;SDS011;13497;48.322;16.204;2023-09-19T13:44:24;5.13;;;0.98;;
25639;SDS011;13497;48.322;16.204;2023-09-19T13:46:49;0.68;;;0.68;;
25639;SDS011;13497;48.322;16.204;2023-09-19T13:49:16;1.02;;;0.75;;
25639;SDS011;13497;48.322;16.204;2023-09-19T13:51:42;2.80;;;1.00;;
25639;SDS011;13497;48.322;16.204;2023-09-19T13:54:08;0.88;;;0.80;;
25639;SDS011;13497;48.322;16.204;2023-09-19T13:56:36;0.60;;;0.60;;
25639;SDS011;13497;48.322;16.204;2023-09-19T13:59:02;0.60;;;0.60;;
25639;SDS011;13497;48.322;16.204;2023-09-19T14:01:28;1.52;;;0.80;;
25639;SDS011;13497;48.322;16.204;2023-09-19T14:03:53;1.17;;;0.60;;
25639;SDS011;13497;48.322;16.204;2023-09-19T14:06:21;0.95;;;0.73;;
25639;SDS011;13497;48.322;16.204;2023-09-19T14:08:47;0.60;;;0.60;;
25639;SDS011;13497;48.322;16.204;2023-09-19T14:11:14;0.50;;;0.50;;
25639;SDS011;13497;48.322;16.204;2023-09-19T14:13:41;2.58;;;0.50;;
25639;SDS011;13497;48.322;16.204;2023-09-19T14:16:11;0.38;;;0.38;;
25639;SDS011;13497;48.322;16.204;2023-09-19T14:18:37;0.63;;;0.47;;
25639;SDS011;13497;48.322;16.204;2023-09-19T14:21:06;0.35;;;0.35;;
25639;SDS011;13497;48.322;16.204;2023-09-19T14:23:36;0.40;;;0.40;;
25639;SDS011;13497;48.322;16.204;2023-09-19T14:26:03;1.90;;;0.60;;
25639;SDS011;13497;48.322;16.204;2023-09-19T14:28:30;0.45;;;0.45;;
25639;SDS011;13497;48.322;16.204;2023-09-19T14:30:56;0.35;;;0.32;;
25639;SDS011;13497;48.322;16.204;2023-09-19T14:33:22;0.50;;;0.50;;
25639;SDS011;13497;48.322;16.204;2023-09-19T14:35:47;0.52;;;0.35;;
25639;SDS011;13497;48.322;16.204;2023-09-19T14:38:13;3.53;;;0.45;;
25639;SDS011;13497;48.322;16.204;2023-09-19T14:40:39;0.88;;;0.40;;
25639;SDS011;13497;48.322;16.204;2023-09-19T14:43:05;1.08;;;0.60;;
25639;SDS011;13497;48.322;16.204;2023-09-19T14:45:35;0.43;;;0.40;;
25639;SDS011;13497;48.322;16.204;2023-09-19T14:48:01;0.43;;;0.40;;
25639;SDS011;13497;48.322;16.204;2023-09-19T14:50:30;0.50;;;0.50;;
25639;SDS011;13497;48.322;16.204;2023-09-19T14:52:56;0.88;;;0.52;;
25639;SDS011;13497;48.322;16.204;2023-09-19T14:55:23;2.40;;;1.90;;
25639;SDS011;13497;48.322;16.204;2023-09-19T14:57:49;0.50;;;0.50;;
25639;SDS011;13497;48.322;16.204;2023-09-19T15:00:16;1.40;;;0.70;;
25639;SDS011;13497;48.322;16.204;2023-09-19T15:02:45;2.35;;;0.77;;
25639;SDS011;13497;48.322;16.204;2023-09-19T15:05:13;1.38;;;0.80;;
25639;SDS011;13497;48.322;16.204;2023-09-19T15:07:40;0.95;;;0.60;;
25639;SDS011;13497;48.322;16.204;2023-09-19T15:10:07;0.63;;;0.60;;
25639;SDS011;13497;48.322;16.204;2023-09-19T15:12:35;0.50;;;0.50;;
25639;SDS011;13497;48.322;16.204;2023-09-19T15:15:03;0.40;;;0.40;;
25639;SDS011;13497;48.322;16.204;2023-09-19T15:17:33;1.02;;;0.80;;
25639;SDS011;13497;48.322;16.204;2023-09-19T15:19:59;0.68;;;0.60;;
25639;SDS011;13497;48.322;16.204;2023-09-19T15:22:24;0.57;;;0.40;;
25639;SDS011;13497;48.322;16.204;2023-09-19T15:24:51;0.40;;;0.40;;
25639;SDS011;13497;48.322;16.204;2023-09-19T15:27:17;0.40;;;0.30;;
25639;SDS011;13497;48.322;16.204;2023-09-19T15:29:45;0.30;;;0.30;;
25639;SDS011;13497;48.322;16.204;2023-09-19T15:32:11;0.50;;;0.50;;
25639;SDS011;13497;48.322;16.204;2023-09-19T15:34:37;2.15;;;0.47;;
25639;SDS011;13497;48.322;16.204;2023-09-19T15:37:02;0.65;;;0.50;;
25639;SDS011;13497;48.322;16.204;2023-09-19T15:39:31;0.60;;;0.60;;
25639;SDS011;13497;48.322;16.204;2023-09-19T15:41:59;0.70;;;0.70;;
25639;SDS011;13497;48.322;16.204;2023-09-19T15:44:25;0.60;;;0.50;;
25639;SDS011;13497;48.322;16.204;2023-09-19T15:46:53;1.27;;;0.60;;
25639;SDS011;13497;48.322;16.204;2023-09-19T15:49:19;1.95;;;0.65;;
25639;SDS011;13497;48.322;16.204;2023-09-19T15:51:45;1.05;;;0.60;;
25639;SDS011;13497;48.322;16.204;2023-09-19T15:54:12;0.40;;;0.40;;
25639;SDS011;13497;48.322;16.204;2023-09-19T15:56:39;1.48;;;0.60;;
25639;SDS011;13497;48.322;16.204;2023-09-19T15:59:06;0.73;;;0.73;;
25639;SDS011;13497;48.322;16.204;2023-09-19T16:01:32;0.60;;;0.47;;